createdAt,value
2023-04-19T00:00:24.411Z,1020.83
2023-04-19T00:00:56.902Z,1020.83
2023-04-19T00:01:29.404Z,1020.81
2023-04-19T00:02:02.054Z,1020.83
2023-04-19T00:02:34.685Z,1020.83
2023-04-19T00:03:07.106Z,1020.84
2023-04-19T00:03:39.582Z,1020.82
2023-04-19T00:04:12.148Z,1020.82
2023-04-19T00:04:44.495Z,1020.81
2023-04-19T00:05:17.043Z,1020.82
2023-04-19T00:05:49.430Z,1020.82
2023-04-19T00:06:21.934Z,1020.84
2023-04-19T00:06:54.440Z,1020.83
2023-04-19T00:07:26.941Z,1020.83
2023-04-19T00:07:59.425Z,1020.86
2023-04-19T00:08:31.951Z,1020.86
2023-04-19T00:09:04.452Z,1020.86
2023-04-19T00:09:36.958Z,1020.85
2023-04-19T00:10:09.468Z,1020.85
2023-04-19T00:10:41.980Z,1020.85
2023-04-19T00:11:14.498Z,1020.84
2023-04-19T00:11:47.023Z,1020.83
2023-04-19T00:12:19.519Z,1020.83
2023-04-19T00:12:52.014Z,1020.81
2023-04-19T00:13:24.533Z,1020.81
2023-04-19T00:13:57.046Z,1020.82
2023-04-19T00:14:29.576Z,1020.82
2023-04-19T00:15:02.071Z,1020.83
2023-04-19T00:15:34.591Z,1020.80
2023-04-19T00:16:07.115Z,1020.79
2023-04-19T00:16:39.666Z,1020.78
2023-04-19T00:17:12.100Z,1020.80
2023-04-19T00:17:44.684Z,1020.80
2023-04-19T00:18:17.164Z,1020.78
2023-04-19T00:18:49.647Z,1020.78
2023-04-19T00:19:22.160Z,1020.76
2023-04-19T00:19:54.650Z,1020.75
2023-04-19T00:20:27.199Z,1020.72
2023-04-19T00:20:59.694Z,1020.72
2023-04-19T00:21:32.185Z,1020.71
2023-04-19T00:22:04.672Z,1020.69
2023-04-19T00:22:37.148Z,1020.67
2023-04-19T00:23:09.645Z,1020.67
2023-04-19T00:23:42.169Z,1020.70
2023-04-19T00:24:14.841Z,1020.69
2023-04-19T00:24:47.174Z,1020.68
2023-04-19T00:25:19.728Z,1020.67
2023-04-19T00:25:52.190Z,1020.68
2023-04-19T00:26:24.700Z,1020.65
2023-04-19T00:26:57.203Z,1020.65
2023-04-19T00:27:29.738Z,1020.62
2023-04-19T00:28:02.251Z,1020.62
2023-04-19T00:28:34.759Z,1020.65
2023-04-19T00:29:07.257Z,1020.65
2023-04-19T00:29:39.767Z,1020.65
2023-04-19T00:30:12.283Z,1020.63
2023-04-19T00:30:44.768Z,1020.64
2023-04-19T00:31:17.299Z,1020.61
2023-04-19T00:31:49.799Z,1020.59
2023-04-19T00:32:22.336Z,1020.60
2023-04-19T00:32:54.925Z,1020.61
2023-04-19T00:33:27.347Z,1020.59
2023-04-19T00:33:59.841Z,1020.59
2023-04-19T00:34:32.346Z,1020.59
2023-04-19T00:35:04.858Z,1020.58
2023-04-19T00:35:37.345Z,1020.59
2023-04-19T00:36:09.863Z,1020.58
2023-04-19T00:36:42.409Z,1020.57
2023-04-19T00:37:14.944Z,1020.58
2023-04-19T00:37:47.459Z,1020.56
2023-04-19T00:38:20.017Z,1020.55
2023-04-19T00:38:52.536Z,1020.58
2023-04-19T00:39:25.042Z,1020.56
2023-04-19T00:39:57.554Z,1020.56
2023-04-19T00:40:30.043Z,1020.55
2023-04-19T00:41:02.575Z,1020.56
2023-04-19T00:41:35.075Z,1020.55
2023-04-19T00:42:07.590Z,1020.57
2023-04-19T00:42:40.128Z,1020.54
2023-04-19T00:43:12.635Z,1020.53
2023-04-19T00:43:45.151Z,1020.53
2023-04-19T00:44:17.734Z,1020.51
2023-04-19T00:44:50.133Z,1020.53
2023-04-19T00:45:22.667Z,1020.51
2023-04-19T00:45:55.266Z,1020.52
2023-04-19T00:46:27.654Z,1020.52
2023-04-19T00:47:00.138Z,1020.51
2023-04-19T00:47:32.642Z,1020.51
2023-04-19T00:48:05.148Z,1020.50
2023-04-19T00:48:37.625Z,1020.51
2023-04-19T00:49:10.119Z,1020.52
2023-04-19T00:49:42.619Z,1020.53
2023-04-19T00:50:15.134Z,1020.52
2023-04-19T00:50:47.607Z,1020.54
2023-04-19T00:51:20.106Z,1020.53
2023-04-19T00:51:52.622Z,1020.52
2023-04-19T00:52:25.085Z,1020.52
2023-04-19T00:52:57.619Z,1020.50
2023-04-19T00:53:30.100Z,1020.49
2023-04-19T00:54:02.587Z,1020.47
2023-04-19T00:54:35.110Z,1020.46
2023-04-19T00:55:07.673Z,1020.47
2023-04-19T00:55:40.184Z,1020.47
2023-04-19T00:56:12.690Z,1020.45
2023-04-19T00:56:45.182Z,1020.45
2023-04-19T00:57:17.670Z,1020.46
2023-04-19T00:57:50.176Z,1020.43
2023-04-19T00:58:22.676Z,1020.44
2023-04-19T00:58:55.163Z,1020.46
2023-04-19T00:59:27.672Z,1020.46
2023-04-19T01:00:00.221Z,1020.44
2023-04-19T01:00:32.686Z,1020.43
2023-04-19T01:01:05.255Z,1020.43
2023-04-19T01:01:37.689Z,1020.39
2023-04-19T01:02:10.177Z,1020.42
2023-04-19T01:02:42.797Z,1020.42
2023-04-19T01:03:15.253Z,1020.43
2023-04-19T01:03:47.812Z,1020.41
2023-04-19T01:04:20.546Z,1020.40
2023-04-19T01:04:52.759Z,1020.41
2023-04-19T01:05:25.220Z,1020.40
2023-04-19T01:05:57.755Z,1020.40
2023-04-19T01:06:30.208Z,1020.41
2023-04-19T01:07:02.718Z,1020.41
2023-04-19T01:07:35.207Z,1020.43
2023-04-19T01:08:07.718Z,1020.43
2023-04-19T01:08:40.235Z,1020.43
2023-04-19T01:09:12.716Z,1020.40
2023-04-19T01:09:45.265Z,1020.42
2023-04-19T01:10:17.748Z,1020.42
2023-04-19T01:10:50.216Z,1020.43
2023-04-19T01:11:22.776Z,1020.43
2023-04-19T01:11:55.280Z,1020.44
2023-04-19T01:12:27.801Z,1020.42
2023-04-19T01:13:00.322Z,1020.45
2023-04-19T01:13:32.856Z,1020.44
2023-04-19T01:14:05.370Z,1020.44
2023-04-19T01:14:37.889Z,1020.46
2023-04-19T01:15:10.393Z,1020.45
2023-04-19T01:15:42.904Z,1020.44
2023-04-19T01:16:15.432Z,1020.44
2023-04-19T01:16:47.889Z,1020.45
2023-04-19T01:17:20.396Z,1020.44
2023-04-19T01:17:52.982Z,1020.46
2023-04-19T01:18:25.393Z,1020.44
2023-04-19T01:18:57.901Z,1020.45
2023-04-19T01:19:30.372Z,1020.44
2023-04-19T01:20:02.898Z,1020.43
2023-04-19T01:20:35.449Z,1020.41
2023-04-19T01:21:07.940Z,1020.44
2023-04-19T01:21:40.445Z,1020.43
2023-04-19T01:22:12.943Z,1020.43
2023-04-19T01:22:45.447Z,1020.43
2023-04-19T01:23:17.949Z,1020.43
2023-04-19T01:23:50.451Z,1020.41
2023-04-19T01:24:22.944Z,1020.42
2023-04-19T01:24:55.452Z,1020.41
2023-04-19T01:25:27.956Z,1020.38
2023-04-19T01:26:00.466Z,1020.43
2023-04-19T01:26:32.987Z,1020.42
2023-04-19T01:27:05.488Z,1020.38
2023-04-19T01:27:38.017Z,1020.43
2023-04-19T01:28:10.535Z,1020.39
2023-04-19T01:28:43.072Z,1020.40
2023-04-19T01:29:15.572Z,1020.40
2023-04-19T01:29:48.081Z,1020.40
2023-04-19T01:30:20.589Z,1020.41
2023-04-19T01:30:53.147Z,1020.42
2023-04-19T01:31:25.674Z,1020.40
2023-04-19T01:31:58.182Z,1020.40
2023-04-19T01:32:30.696Z,1020.40
2023-04-19T01:33:03.286Z,1020.40
2023-04-19T01:33:35.690Z,1020.41
2023-04-19T01:34:08.175Z,1020.40
2023-04-19T01:34:40.709Z,1020.43
2023-04-19T01:35:13.266Z,1020.41
2023-04-19T01:35:45.778Z,1020.41
2023-04-19T01:36:18.223Z,1020.40
2023-04-19T01:36:50.742Z,1020.38
2023-04-19T01:37:23.263Z,1020.40
2023-04-19T01:37:55.746Z,1020.39
2023-04-19T01:38:28.296Z,1020.38
2023-04-19T01:39:00.806Z,1020.37
2023-04-19T01:39:33.313Z,1020.40
2023-04-19T01:40:05.847Z,1020.42
2023-04-19T01:40:38.356Z,1020.41
2023-04-19T01:41:10.862Z,1020.42
2023-04-19T01:41:43.368Z,1020.43
2023-04-19T01:42:15.883Z,1020.43
2023-04-19T01:42:48.371Z,1020.43
2023-04-19T01:43:20.894Z,1020.43
2023-04-19T01:43:53.389Z,1020.42
2023-04-19T01:44:25.879Z,1020.43
2023-04-19T01:44:58.409Z,1020.42
2023-04-19T01:45:30.906Z,1020.42
2023-04-19T01:46:03.429Z,1020.45
2023-04-19T01:46:35.956Z,1020.42
2023-04-19T01:47:08.491Z,1020.41
2023-04-19T01:47:40.909Z,1020.43
2023-04-19T01:48:13.381Z,1020.39
2023-04-19T01:48:45.882Z,1020.38
2023-04-19T01:49:18.367Z,1020.36
2023-04-19T01:49:50.909Z,1020.34
2023-04-19T01:50:23.430Z,1020.38
2023-04-19T01:50:55.942Z,1020.37
2023-04-19T01:51:28.464Z,1020.39
2023-04-19T01:52:00.969Z,1020.35
2023-04-19T01:52:33.520Z,1020.35
2023-04-19T01:53:06.044Z,1020.36
2023-04-19T01:53:38.575Z,1020.37
2023-04-19T01:54:11.066Z,1020.34
2023-04-19T01:54:43.549Z,1020.33
2023-04-19T01:55:16.036Z,1020.38
2023-04-19T01:55:48.556Z,1020.38
2023-04-19T01:56:21.058Z,1020.39
2023-04-19T01:56:53.587Z,1020.36
2023-04-19T01:57:26.092Z,1020.38
2023-04-19T01:57:58.607Z,1020.39
2023-04-19T01:58:31.123Z,1020.38
2023-04-19T01:59:03.634Z,1020.42
2023-04-19T01:59:36.187Z,1020.38
2023-04-19T02:00:08.706Z,1020.39
2023-04-19T02:00:41.248Z,1020.36
2023-04-19T02:01:13.774Z,1020.35
2023-04-19T02:01:46.279Z,1020.36
2023-04-19T02:02:18.932Z,1020.36
2023-04-19T02:02:51.428Z,1020.34
2023-04-19T02:03:23.901Z,1020.36
2023-04-19T02:03:56.899Z,1020.37
2023-04-19T02:04:29.314Z,1020.36
2023-04-19T02:05:01.805Z,1020.38
2023-04-19T02:05:34.298Z,1020.35
2023-04-19T02:06:06.798Z,1020.36
2023-04-19T02:06:39.307Z,1020.35
2023-04-19T02:07:11.804Z,1020.34
2023-04-19T02:07:44.352Z,1020.36
2023-04-19T02:08:16.854Z,1020.36
2023-04-19T02:08:49.349Z,1020.36
2023-04-19T02:09:21.869Z,1020.35
2023-04-19T02:09:54.375Z,1020.37
2023-04-19T02:10:26.886Z,1020.38
2023-04-19T02:10:59.392Z,1020.39
2023-04-19T02:11:31.918Z,1020.39
2023-04-19T02:12:04.417Z,1020.40
2023-04-19T02:12:39.069Z,1020.38
2023-04-19T02:13:11.559Z,1020.40
2023-04-19T02:13:44.085Z,1020.40
2023-04-19T02:14:16.753Z,1020.38
2023-04-19T02:14:49.073Z,1020.37
2023-04-19T02:15:21.554Z,1020.37
2023-04-19T02:15:54.104Z,1020.40
2023-04-19T02:16:26.632Z,1020.39
2023-04-19T02:16:59.095Z,1020.40
2023-04-19T02:17:31.654Z,1020.40
2023-04-19T02:18:04.120Z,1020.40
2023-04-19T02:18:36.614Z,1020.40
2023-04-19T02:19:09.107Z,1020.41
2023-04-19T02:19:41.612Z,1020.40
2023-04-19T02:20:14.111Z,1020.39
2023-04-19T02:20:46.627Z,1020.38
2023-04-19T02:21:19.137Z,1020.38
2023-04-19T02:21:51.669Z,1020.39
2023-04-19T02:22:24.159Z,1020.39
2023-04-19T02:22:56.730Z,1020.40
2023-04-19T02:23:29.249Z,1020.41
2023-04-19T02:24:01.750Z,1020.39
2023-04-19T02:24:34.256Z,1020.39
2023-04-19T02:25:06.774Z,1020.41
2023-04-19T02:25:39.301Z,1020.38
2023-04-19T02:26:11.834Z,1020.37
2023-04-19T02:26:44.345Z,1020.35
2023-04-19T02:27:16.873Z,1020.38
2023-04-19T02:27:49.382Z,1020.40
2023-04-19T02:28:21.891Z,1020.38
2023-04-19T02:28:54.420Z,1020.34
2023-04-19T02:29:26.923Z,1020.36
2023-04-19T02:29:59.432Z,1020.37
2023-04-19T02:30:31.962Z,1020.38
2023-04-19T02:31:04.483Z,1020.36
2023-04-19T02:31:37.018Z,1020.40
2023-04-19T02:32:09.585Z,1020.36
2023-04-19T02:32:42.079Z,1020.36
2023-04-19T02:33:14.563Z,1020.32
2023-04-19T02:33:47.081Z,1020.33
2023-04-19T02:34:19.580Z,1020.35
2023-04-19T02:34:52.103Z,1020.33
2023-04-19T02:35:24.638Z,1020.33
2023-04-19T02:35:57.143Z,1020.33
2023-04-19T02:36:29.640Z,1020.35
2023-04-19T02:37:02.150Z,1020.36
2023-04-19T02:37:34.726Z,1020.38
2023-04-19T02:38:07.266Z,1020.37
2023-04-19T02:38:39.759Z,1020.36
2023-04-19T02:39:12.263Z,1020.37
2023-04-19T02:39:44.771Z,1020.38
2023-04-19T02:40:17.305Z,1020.38
2023-04-19T02:40:49.880Z,1020.38
2023-04-19T02:41:22.385Z,1020.39
2023-04-19T02:41:54.899Z,1020.40
2023-04-19T02:42:27.441Z,1020.40
2023-04-19T02:42:59.959Z,1020.40
2023-04-19T02:43:32.465Z,1020.41
2023-04-19T02:44:04.951Z,1020.43
2023-04-19T02:44:37.458Z,1020.42
2023-04-19T02:45:09.976Z,1020.41
2023-04-19T02:45:42.507Z,1020.42
2023-04-19T02:46:15.093Z,1020.42
2023-04-19T02:46:47.564Z,1020.43
2023-04-19T02:47:20.057Z,1020.44
2023-04-19T02:47:52.647Z,1020.43
2023-04-19T02:48:25.120Z,1020.43
2023-04-19T02:48:57.685Z,1020.42
2023-04-19T02:49:30.192Z,1020.42
2023-04-19T02:50:02.732Z,1020.44
2023-04-19T02:50:35.245Z,1020.43
2023-04-19T02:51:07.710Z,1020.42
2023-04-19T02:51:40.231Z,1020.41
2023-04-19T02:52:12.759Z,1020.42
2023-04-19T02:52:45.307Z,1020.38
2023-04-19T02:53:17.819Z,1020.40
2023-04-19T02:53:50.400Z,1020.38
2023-04-19T02:54:22.920Z,1020.40
2023-04-19T02:54:55.417Z,1020.39
2023-04-19T02:55:27.926Z,1020.42
2023-04-19T02:56:00.417Z,1020.40
2023-04-19T02:56:32.940Z,1020.43
2023-04-19T02:57:05.470Z,1020.40
2023-04-19T02:57:38.026Z,1020.37
2023-04-19T02:58:10.547Z,1020.37
2023-04-19T02:58:43.038Z,1020.37
2023-04-19T02:59:15.521Z,1020.38
2023-04-19T02:59:48.027Z,1020.38
2023-04-19T03:00:20.557Z,1020.36
2023-04-19T03:00:53.074Z,1020.39
2023-04-19T03:01:25.635Z,1020.37
2023-04-19T03:01:58.079Z,1020.40
2023-04-19T03:02:30.626Z,1020.35
2023-04-19T03:03:03.189Z,1020.39
2023-04-19T03:03:35.630Z,1020.41
2023-04-19T03:04:08.088Z,1020.38
2023-04-19T03:04:40.578Z,1020.39
2023-04-19T03:05:13.058Z,1020.37
2023-04-19T03:05:45.577Z,1020.39
2023-04-19T03:06:18.109Z,1020.42
2023-04-19T03:06:50.700Z,1020.39
2023-04-19T03:07:23.212Z,1020.41
2023-04-19T03:07:55.724Z,1020.38
2023-04-19T03:08:28.275Z,1020.37
2023-04-19T03:09:00.762Z,1020.37
2023-04-19T03:09:33.269Z,1020.39
2023-04-19T03:10:05.795Z,1020.37
2023-04-19T03:10:38.328Z,1020.37
2023-04-19T03:11:10.912Z,1020.38
2023-04-19T03:11:43.439Z,1020.40
2023-04-19T03:12:15.944Z,1020.39
2023-04-19T03:12:48.442Z,1020.38
2023-04-19T03:13:21.109Z,1020.40
2023-04-19T03:13:53.663Z,1020.40
2023-04-19T03:14:26.143Z,1020.39
2023-04-19T03:14:58.660Z,1020.39
2023-04-19T03:15:31.198Z,1020.39
2023-04-19T03:16:03.732Z,1020.40
2023-04-19T03:16:36.164Z,1020.40
2023-04-19T03:17:08.662Z,1020.41
2023-04-19T03:17:41.257Z,1020.39
2023-04-19T03:18:13.688Z,1020.41
2023-04-19T03:18:47.927Z,1020.39
2023-04-19T03:19:18.695Z,1020.42
2023-04-19T03:19:51.248Z,1020.41
2023-04-19T03:20:23.712Z,1020.43
2023-04-19T03:20:56.201Z,1020.41
2023-04-19T03:21:28.687Z,1020.39
2023-04-19T03:22:01.196Z,1020.41
2023-04-19T03:22:33.690Z,1020.41
2023-04-19T03:23:06.212Z,1020.43
2023-04-19T03:23:38.752Z,1020.45
2023-04-19T03:24:11.271Z,1020.44
2023-04-19T03:24:43.749Z,1020.42
2023-04-19T03:25:16.282Z,1020.43
2023-04-19T03:25:48.781Z,1020.44
2023-04-19T03:26:21.322Z,1020.41
2023-04-19T03:26:53.826Z,1020.42
2023-04-19T03:27:26.348Z,1020.40
2023-04-19T03:27:58.857Z,1020.41
2023-04-19T03:28:31.387Z,1020.39
2023-04-19T03:29:03.884Z,1020.40
2023-04-19T03:29:36.368Z,1020.42
2023-04-19T03:30:08.892Z,1020.44
2023-04-19T03:30:41.404Z,1020.42
2023-04-19T03:31:13.978Z,1020.41
2023-04-19T03:31:46.483Z,1020.41
2023-04-19T03:32:18.884Z,1020.40
2023-04-19T03:32:51.466Z,1020.39
2023-04-19T03:33:23.951Z,1020.39
2023-04-19T03:33:56.472Z,1020.41
2023-04-19T03:34:28.963Z,1020.36
2023-04-19T03:35:01.494Z,1020.37
2023-04-19T03:35:34.012Z,1020.38
2023-04-19T03:36:06.536Z,1020.38
2023-04-19T03:36:39.058Z,1020.36
2023-04-19T03:37:11.557Z,1020.31
2023-04-19T03:37:44.054Z,1020.34
2023-04-19T03:38:16.561Z,1020.34
2023-04-19T03:38:49.054Z,1020.33
2023-04-19T03:39:21.602Z,1020.33
2023-04-19T03:39:54.089Z,1020.33
2023-04-19T03:40:26.583Z,1020.32
2023-04-19T03:40:59.094Z,1020.32
2023-04-19T03:41:31.603Z,1020.34
2023-04-19T03:42:04.110Z,1020.30
2023-04-19T03:42:36.671Z,1020.33
2023-04-19T03:43:09.204Z,1020.31
2023-04-19T03:43:41.745Z,1020.31
2023-04-19T03:44:14.588Z,1020.33
2023-04-19T03:44:46.907Z,1020.30
2023-04-19T03:45:19.420Z,1020.32
2023-04-19T03:45:51.998Z,1020.29
2023-04-19T03:46:24.523Z,1020.29
2023-04-19T03:46:56.986Z,1020.31
2023-04-19T03:47:29.547Z,1020.33
2023-04-19T03:48:03.123Z,1020.35
2023-04-19T03:48:34.463Z,1020.31
2023-04-19T03:49:06.979Z,1020.30
2023-04-19T03:49:39.488Z,1020.33
2023-04-19T03:50:12.007Z,1020.31
2023-04-19T03:50:44.555Z,1020.30
2023-04-19T03:51:17.094Z,1020.31
2023-04-19T03:51:49.604Z,1020.28
2023-04-19T03:52:22.106Z,1020.30
2023-04-19T03:52:54.632Z,1020.30
2023-04-19T03:53:27.209Z,1020.31
2023-04-19T03:53:59.719Z,1020.33
2023-04-19T03:54:32.215Z,1020.30
2023-04-19T03:55:04.695Z,1020.32
2023-04-19T03:55:37.199Z,1020.31
2023-04-19T03:56:09.715Z,1020.33
2023-04-19T03:56:42.196Z,1020.32
2023-04-19T03:57:14.708Z,1020.31
2023-04-19T03:57:47.211Z,1020.31
2023-04-19T03:58:19.747Z,1020.31
2023-04-19T03:58:52.264Z,1020.32
2023-04-19T03:59:24.778Z,1020.30
2023-04-19T03:59:57.288Z,1020.27
2023-04-19T04:00:29.789Z,1020.31
2023-04-19T04:01:02.313Z,1020.35
2023-04-19T04:01:34.835Z,1020.37
2023-04-19T04:02:07.452Z,1020.33
2023-04-19T04:02:40.037Z,1020.38
2023-04-19T04:03:12.582Z,1020.37
2023-04-19T04:03:45.172Z,1020.36
2023-04-19T04:04:17.825Z,1020.39
2023-04-19T04:04:50.068Z,1020.34
2023-04-19T04:05:22.474Z,1020.33
2023-04-19T04:05:54.911Z,1020.32
2023-04-19T04:06:27.453Z,1020.37
2023-04-19T04:07:00.044Z,1020.39
2023-04-19T04:07:32.517Z,1020.37
2023-04-19T04:08:05.037Z,1020.36
2023-04-19T04:08:37.545Z,1020.38
2023-04-19T04:09:10.041Z,1020.38
2023-04-19T04:09:42.561Z,1020.39
2023-04-19T04:10:15.060Z,1020.38
2023-04-19T04:10:47.548Z,1020.38
2023-04-19T04:11:20.056Z,1020.41
2023-04-19T04:11:52.596Z,1020.42
2023-04-19T04:12:25.107Z,1020.39
2023-04-19T04:12:57.656Z,1020.39
2023-04-19T04:13:30.179Z,1020.39
2023-04-19T04:14:02.659Z,1020.40
2023-04-19T04:14:35.191Z,1020.39
2023-04-19T04:15:07.671Z,1020.38
2023-04-19T04:15:40.206Z,1020.41
2023-04-19T04:16:12.765Z,1020.41
2023-04-19T04:16:45.291Z,1020.40
2023-04-19T04:17:24.904Z,1020.42
2023-04-19T04:17:57.423Z,1020.40
2023-04-19T04:18:29.844Z,1020.45
2023-04-19T04:19:02.374Z,1020.43
2023-04-19T04:19:34.875Z,1020.45
2023-04-19T04:20:07.454Z,1020.48
2023-04-19T04:20:39.975Z,1020.43
2023-04-19T04:21:12.488Z,1020.45
2023-04-19T04:21:45.001Z,1020.49
2023-04-19T04:22:17.494Z,1020.46
2023-04-19T04:22:50.023Z,1020.45
2023-04-19T04:23:22.523Z,1020.46
2023-04-19T04:23:55.034Z,1020.46
2023-04-19T04:24:27.540Z,1020.43
2023-04-19T04:25:00.041Z,1020.44
2023-04-19T04:25:32.565Z,1020.43
2023-04-19T04:26:05.083Z,1020.44
2023-04-19T04:26:37.572Z,1020.45
2023-04-19T04:27:10.137Z,1020.44
2023-04-19T04:27:42.639Z,1020.46
2023-04-19T04:28:15.218Z,1020.44
2023-04-19T04:28:47.698Z,1020.41
2023-04-19T04:29:20.223Z,1020.42
2023-04-19T04:29:52.711Z,1020.43
2023-04-19T04:30:27.279Z,1020.41
2023-04-19T04:30:57.722Z,1020.43
2023-04-19T04:31:30.334Z,1020.43
2023-04-19T04:32:02.764Z,1020.43
2023-04-19T04:32:35.291Z,1020.43
2023-04-19T04:33:07.802Z,1020.42
2023-04-19T04:33:40.299Z,1020.42
2023-04-19T04:34:12.867Z,1020.41
2023-04-19T04:34:45.354Z,1020.42
2023-04-19T04:35:17.862Z,1020.46
2023-04-19T04:35:50.475Z,1020.45
2023-04-19T04:36:23.027Z,1020.41
2023-04-19T04:36:55.551Z,1020.42
2023-04-19T04:37:28.048Z,1020.45
2023-04-19T04:38:01.957Z,1020.43
2023-04-19T04:38:33.067Z,1020.46
2023-04-19T04:39:05.570Z,1020.44
2023-04-19T04:39:38.104Z,1020.45
2023-04-19T04:40:10.617Z,1020.46
2023-04-19T04:40:43.113Z,1020.47
2023-04-19T04:41:15.793Z,1020.45
2023-04-19T04:41:48.313Z,1020.46
2023-04-19T04:42:20.822Z,1020.44
2023-04-19T04:42:53.394Z,1020.46
2023-04-19T04:43:25.985Z,1020.48
2023-04-19T04:44:11.389Z,1020.49
2023-04-19T04:44:30.892Z,1020.49
2023-04-19T04:45:03.412Z,1020.48
2023-04-19T04:45:36.019Z,1020.50
2023-04-19T04:46:08.544Z,1020.52
2023-04-19T04:46:41.023Z,1020.53
2023-04-19T04:47:13.513Z,1020.54
2023-04-19T04:47:46.057Z,1020.51
2023-04-19T04:48:18.528Z,1020.52
2023-04-19T04:48:51.006Z,1020.55
2023-04-19T04:49:23.543Z,1020.55
2023-04-19T04:49:56.033Z,1020.55
2023-04-19T04:50:28.573Z,1020.53
2023-04-19T04:51:01.059Z,1020.55
2023-04-19T04:51:40.628Z,1020.56
2023-04-19T04:52:20.143Z,1020.56
2023-04-19T04:52:59.696Z,1020.54
2023-04-19T04:53:39.245Z,1020.55
2023-04-19T04:54:18.815Z,1020.51
2023-04-19T04:54:58.344Z,1020.54
2023-04-19T04:55:37.876Z,1020.54
2023-04-19T04:56:17.421Z,1020.53
2023-04-19T04:56:49.965Z,1020.54
2023-04-19T04:57:22.421Z,1020.54
2023-04-19T04:57:54.946Z,1020.55
2023-04-19T04:58:27.466Z,1020.55
2023-04-19T04:58:59.968Z,1020.55
2023-04-19T04:59:32.500Z,1020.55
2023-04-19T05:00:05.029Z,1020.55
2023-04-19T05:00:37.520Z,1020.55
2023-04-19T05:01:10.042Z,1020.55
2023-04-19T05:01:42.744Z,1020.55
2023-04-19T05:02:15.110Z,1020.56
2023-04-19T05:02:47.657Z,1020.55
2023-04-19T05:03:20.577Z,1020.57
2023-04-19T05:03:53.204Z,1020.55
2023-04-19T05:04:25.778Z,1020.58
2023-04-19T05:04:58.345Z,1020.56
2023-04-19T05:05:30.914Z,1020.58
2023-04-19T05:06:03.456Z,1020.56
2023-04-19T05:06:36.120Z,1020.57
2023-04-19T05:07:08.619Z,1020.57
2023-04-19T05:07:41.157Z,1020.59
2023-04-19T05:08:13.686Z,1020.58
2023-04-19T05:08:46.216Z,1020.62
2023-04-19T05:09:18.750Z,1020.60
2023-04-19T05:09:51.353Z,1020.63
2023-04-19T05:10:23.945Z,1020.60
2023-04-19T05:10:56.470Z,1020.64
2023-04-19T05:11:29.008Z,1020.61
2023-04-19T05:12:01.785Z,1020.63
2023-04-19T05:12:34.438Z,1020.62
2023-04-19T05:13:07.290Z,1020.65
2023-04-19T05:13:39.879Z,1020.62
2023-04-19T05:14:12.494Z,1020.60
2023-04-19T05:14:45.005Z,1020.62
2023-04-19T05:15:17.543Z,1020.59
2023-04-19T05:15:50.128Z,1020.56
2023-04-19T05:16:22.694Z,1020.61
2023-04-19T05:16:55.186Z,1020.60
2023-04-19T05:17:27.764Z,1020.61
2023-04-19T05:18:00.311Z,1020.62
2023-04-19T05:18:32.890Z,1020.61
2023-04-19T05:19:05.355Z,1020.63
2023-04-19T05:19:37.914Z,1020.64
2023-04-19T05:20:10.446Z,1020.61
2023-04-19T05:20:43.050Z,1020.67
2023-04-19T05:21:15.578Z,1020.68
2023-04-19T05:21:48.273Z,1020.64
2023-04-19T05:22:20.787Z,1020.64
2023-04-19T05:22:53.405Z,1020.67
2023-04-19T05:23:25.967Z,1020.65
2023-04-19T05:23:58.471Z,1020.68
2023-04-19T05:24:30.992Z,1020.69
2023-04-19T05:25:03.561Z,1020.67
2023-04-19T05:25:36.082Z,1020.74
2023-04-19T05:26:08.624Z,1020.69
2023-04-19T05:26:41.304Z,1020.70
2023-04-19T05:27:13.858Z,1020.72
2023-04-19T05:27:46.452Z,1020.71
2023-04-19T05:28:19.000Z,1020.74
2023-04-19T05:28:51.531Z,1020.72
2023-04-19T05:29:24.071Z,1020.73
2023-04-19T05:29:56.586Z,1020.74
2023-04-19T05:30:29.120Z,1020.70
2023-04-19T05:31:01.679Z,1020.74
2023-04-19T05:31:34.279Z,1020.73
2023-04-19T05:32:06.829Z,1020.76
2023-04-19T05:32:39.442Z,1020.74
2023-04-19T05:33:11.940Z,1020.74
2023-04-19T05:33:44.515Z,1020.75
2023-04-19T05:34:18.015Z,1020.75
2023-04-19T05:34:49.524Z,1020.77
2023-04-19T05:35:22.105Z,1020.76
2023-04-19T05:35:54.662Z,1020.74
2023-04-19T05:36:27.247Z,1020.75
2023-04-19T05:36:59.901Z,1020.77
2023-04-19T05:37:32.432Z,1020.75
2023-04-19T05:38:04.952Z,1020.78
2023-04-19T05:38:37.502Z,1020.82
2023-04-19T05:39:09.983Z,1020.81
2023-04-19T05:39:44.209Z,1020.77
2023-04-19T05:40:15.128Z,1020.76
2023-04-19T05:40:47.657Z,1020.77
2023-04-19T05:41:20.193Z,1020.74
2023-04-19T05:41:52.706Z,1020.77
2023-04-19T05:42:25.290Z,1020.75
2023-04-19T05:42:57.822Z,1020.72
2023-04-19T05:43:30.346Z,1020.73
2023-04-19T05:44:02.852Z,1020.74
2023-04-19T05:44:35.362Z,1020.75
2023-04-19T05:45:07.860Z,1020.71
2023-04-19T05:45:40.343Z,1020.76
2023-04-19T05:46:12.905Z,1020.73
2023-04-19T05:46:45.447Z,1020.76
2023-04-19T05:47:18.076Z,1020.75
2023-04-19T05:47:50.670Z,1020.69
2023-04-19T05:48:23.134Z,1020.72
2023-04-19T05:48:55.656Z,1020.70
2023-04-19T05:49:28.186Z,1020.72
2023-04-19T05:50:00.743Z,1020.75
2023-04-19T05:50:33.254Z,1020.71
2023-04-19T05:51:05.837Z,1020.67
2023-04-19T05:51:38.374Z,1020.63
2023-04-19T05:52:10.873Z,1020.63
2023-04-19T05:52:43.518Z,1020.67
2023-04-19T05:53:15.997Z,1020.67
2023-04-19T05:53:48.662Z,1020.71
2023-04-19T05:54:21.210Z,1020.75
2023-04-19T05:54:53.789Z,1020.71
2023-04-19T05:55:26.350Z,1020.70
2023-04-19T05:55:58.904Z,1020.65
2023-04-19T05:56:31.467Z,1020.73
2023-04-19T05:57:03.994Z,1020.73
2023-04-19T05:57:36.657Z,1020.77
2023-04-19T05:58:09.064Z,1020.72
2023-04-19T05:58:41.561Z,1020.71
2023-04-19T05:59:14.192Z,1020.67
2023-04-19T05:59:46.658Z,1020.74
2023-04-19T06:00:19.177Z,1020.73
2023-04-19T06:00:51.659Z,1020.73
2023-04-19T06:01:24.174Z,1020.77
2023-04-19T06:01:56.693Z,1020.78
2023-04-19T06:02:29.279Z,1020.75
2023-04-19T06:03:01.898Z,1020.78
2023-04-19T06:03:34.622Z,1020.70
2023-04-19T06:04:06.937Z,1020.71
2023-04-19T06:04:39.691Z,1020.76
2023-04-19T06:05:12.053Z,1020.74
2023-04-19T06:05:44.502Z,1020.73
2023-04-19T06:06:17.209Z,1020.74
2023-04-19T06:06:49.527Z,1020.76
2023-04-19T06:07:32.032Z,1020.77
2023-04-19T06:07:55.580Z,1020.74
2023-04-19T06:08:26.986Z,1020.76
2023-04-19T06:08:59.474Z,1020.78
2023-04-19T06:09:31.952Z,1020.89
2023-04-19T06:10:04.456Z,1020.84
2023-04-19T06:10:49.675Z,1020.83
2023-04-19T06:11:22.913Z,1020.84
2023-04-19T06:11:49.866Z,1020.84
2023-04-19T06:12:14.453Z,1020.88
2023-04-19T06:12:46.963Z,1020.88
2023-04-19T06:13:19.468Z,1020.88
2023-04-19T06:13:52.003Z,1020.89
2023-04-19T06:14:24.464Z,1020.89
2023-04-19T06:14:56.956Z,1020.90
2023-04-19T06:15:29.460Z,1020.90
2023-04-19T06:16:01.964Z,1020.84
2023-04-19T06:16:34.550Z,1020.89
2023-04-19T06:17:06.909Z,1020.91
2023-04-19T06:17:39.421Z,1020.92
2023-04-19T06:18:19.823Z,1020.91
2023-04-19T06:18:44.413Z,1020.91
2023-04-19T06:19:16.908Z,1020.95
2023-04-19T06:19:49.398Z,1020.93
2023-04-19T06:20:21.880Z,1020.96
2023-04-19T06:20:54.398Z,1020.94
2023-04-19T06:21:26.906Z,1020.93
2023-04-19T06:21:59.369Z,1020.94
2023-04-19T06:22:31.884Z,1020.95
2023-04-19T06:23:04.371Z,1020.98
2023-04-19T06:23:36.875Z,1020.98
2023-04-19T06:24:09.383Z,1021.01
2023-04-19T06:24:41.899Z,1021.01
2023-04-19T06:25:14.384Z,1020.96
2023-04-19T06:25:46.875Z,1021.00
2023-04-19T06:26:19.358Z,1021.01
2023-04-19T06:26:51.840Z,1021.01
2023-04-19T06:27:24.334Z,1021.03
2023-04-19T06:27:56.834Z,1021.04
2023-04-19T06:28:29.329Z,1021.03
2023-04-19T06:29:01.829Z,1021.05
2023-04-19T06:29:34.339Z,1021.03
2023-04-19T06:30:06.844Z,1021.01
2023-04-19T06:30:39.327Z,1021.03
2023-04-19T06:31:11.826Z,1021.02
2023-04-19T06:31:44.332Z,1021.05
2023-04-19T06:32:16.871Z,1021.02
2023-04-19T06:32:49.411Z,1020.99
2023-04-19T06:33:21.838Z,1020.96
2023-04-19T06:33:54.340Z,1021.03
2023-04-19T06:34:26.814Z,1021.02